Time;durP1;ratioP1;P1;durP2;ratioP2;P2;SDS_P1;SDS_P2;PMS_P1;PMS_P2;Temp;Humidity;BMP_temperature;BMP_pressure;BME280_temperature;BME280_humidity;BME280_pressure;Samples;Min_cycle;Max_cycle;Signal;HPM_P1;HPM_P2
2022/09/10 00:01:45;;;;;;;7.27;4.30;;;;;;;18.90;100.00;99594.28;6306222;28;20044;-71
2022/09/10 00:04:46;;;;;;;8.47;5.07;;;;;;;18.90;100.00;99586.34;6320613;28;20047;-73
2022/09/10 00:07:47;;;;;;;7.17;5.27;;;;;;;18.96;100.00;99587.53;6321881;28;20032;-73
2022/09/10 00:10:50;;;;;;;7.13;4.87;;;;;;;18.95;100.00;99586.72;6320600;28;20043;-71
2022/09/10 00:13:51;;;;;;;8.70;5.32;;;;;;;18.94;100.00;99585.03;6321501;28;20417;-73
2022/09/10 00:16:53;;;;;;;6.90;4.83;;;;;;;18.88;100.00;99588.31;6321647;28;20065;-71
2022/09/10 00:19:54;;;;;;;;;;;;;;;18.89;100.00;99593.44;6321969;28;20075;-73
2022/09/10 00:22:55;;;;;;;6.70;4.53;;;;;;;18.87;100.00;99581.38;6321529;28;20295;-70
2022/09/10 00:25:56;;;;;;;9.00;5.77;;;;;;;18.82;100.00;99566.00;6354039;27;20044;-73
2022/09/10 00:28:58;;;;;;;7.72;5.28;;;;;;;18.78;100.00;99571.72;6321298;28;20105;-71
2022/09/10 00:31:59;;;;;;;7.95;5.43;;;;;;;18.87;100.00;99573.47;6321265;28;20036;-71
2022/09/10 00:35:00;;;;;;;5.95;4.90;;;;;;;18.92;100.00;99565.88;6319825;28;20047;-73
2022/09/10 00:38:02;;;;;;;8.80;5.07;;;;;;;18.89;100.00;99547.69;6321140;28;20122;-73
2022/09/10 00:41:07;;;;;;;13.02;6.35;;;;;;;18.86;100.00;99542.72;6319519;28;20045;-72
2022/09/10 00:44:38;;;;;;;6.82;5.05;;;;;;;18.89;100.00;99539.75;6321055;28;20104;-73
2022/09/10 00:47:39;;;;;;;5.60;5.00;;;;;;;18.93;100.00;99552.50;6319457;28;20511;-71
2022/09/10 00:50:43;;;;;;;8.50;5.90;;;;;;;18.98;100.00;99559.94;6319545;28;20115;-71
2022/09/10 00:53:45;;;;;;;5.78;4.80;;;;;;;18.99;100.00;99560.78;6319442;28;20135;-72
2022/09/10 00:56:50;;;;;;;7.38;4.93;;;;;;;18.92;100.00;99547.34;6316531;28;20048;-74
2022/09/10 01:00:00;;;;;;;8.90;5.53;;;;;;;18.92;100.00;99534.16;6327933;28;20048;-75
2022/09/10 01:03:05;;;;;;;6.93;5.40;;;;;;;18.82;100.00;99544.88;6295499;28;20041;-75
2022/09/10 01:06:06;;;;;;;9.40;6.47;;;;;;;18.82;100.00;99555.44;6293949;28;20489;-73
2022/09/10 01:09:10;;;;;;;8.80;5.73;;;;;;;18.81;100.00;99543.19;6295251;28;20053;-75
2022/09/10 01:12:23;;;;;;;6.95;5.18;;;;;;;18.76;100.00;99507.63;6293874;28;20689;-73
2022/09/10 01:15:47;;;;;;;7.82;5.60;;;;;;;18.77;100.00;99504.81;6295421;28;20044;-76
2022/09/10 01:19:20;;;;;;;6.75;4.60;;;;;;;18.91;100.00;99506.88;6295074;28;20416;-73
2022/09/10 01:22:39;;;;;;;8.65;5.25;;;;;;;19.06;100.00;99520.31;6294998;28;20480;-73
2022/09/10 01:26:26;;;;;;;7.03;5.10;;;;;;;19.07;100.00;99534.38;6295244;28;20173;-75
2022/09/10 01:29:32;;;;;;;5.78;4.30;;;;;;;19.08;100.00;99555.34;6268824;28;20048;-73
2022/09/10 01:32:37;;;;;;;7.95;4.95;;;;;;;19.02;100.00;99541.94;6313633;28;20097;-73
2022/09/10 01:35:51;;;;;;;7.30;3.70;;;;;;;18.69;100.00;99510.09;6320442;28;20111;-77
2022/09/10 01:38:52;;;;;;;8.55;3.53;;;;;;;18.52;100.00;99506.53;6320385;28;20047;-74
2022/09/10 01:41:53;;;;;;;4.90;3.87;;;;;;;18.51;100.00;99504.88;6321473;28;20143;-73
2022/09/10 01:44:56;;;;;;;5.90;3.50;;;;;;;18.52;100.00;99528.50;6319935;28;20067;-73
2022/09/10 01:48:17;;;;;;;6.85;3.65;;;;;;;18.59;100.00;99536.63;6305042;28;20055;-74
2022/09/10 01:51:33;;;;;;;6.23;2.80;;;;;;;18.56;100.00;99530.84;6296555;28;20040;-73
2022/09/10 01:54:55;;;;;;;3.65;2.50;;;;;;;18.49;100.00;99523.56;6296430;28;20101;-76
2022/09/10 01:58:18;;;;;;;4.18;2.65;;;;;;;18.36;100.00;99507.28;6295258;28;20484;-76
2022/09/10 02:01:27;;;;;;;5.57;3.03;;;;;;;18.38;100.00;99499.22;6294558;28;20052;-74
2022/09/10 02:04:29;;;;;;;4.13;2.45;;;;;;;18.35;100.00;99478.41;6296098;28;20052;-75
2022/09/10 02:07:33;;;;;;;4.70;3.15;;;;;;;18.40;100.00;99466.38;6294941;28;20514;-73
2022/09/10 02:10:55;;;;;;;3.63;2.40;;;;;;;18.40;100.00;99458.44;6296049;28;20508;-73
2022/09/10 02:13:59;;;;;;;5.32;2.85;;;;;;;18.47;100.00;99461.28;6294521;28;20049;-73
2022/09/10 02:17:03;;;;;;;4.75;2.60;;;;;;;18.39;100.00;99456.81;6296600;28;20519;-72
2022/09/10 02:20:12;;;;;;;2.40;1.98;;;;;;;18.39;100.00;99455.97;6315057;28;20623;-72
2022/09/10 02:23:17;;;;;;;3.38;2.05;;;;;;;18.28;100.00;99455.28;6324650;28;20085;-75
2022/09/10 02:26:18;;;;;;;2.78;2.00;;;;;;;18.38;100.00;99457.78;6324517;28;20048;-72
2022/09/10 02:29:19;;;;;;;2.67;1.98;;;;;;;18.45;100.00;99460.59;6323338;28;20589;-74
2022/09/10 02:32:20;;;;;;;2.50;2.30;;;;;;;18.48;100.00;99468.22;6324752;28;20042;-74
2022/09/10 02:35:21;;;;;;;5.10;2.38;;;;;;;18.43;100.00;99454.66;6325091;28;20047;-72
2022/09/10 02:38:24;;;;;;;3.50;2.53;;;;;;;18.45;100.00;99457.97;6324674;28;20111;-74
2022/09/10 02:41:25;;;;;;;3.70;2.38;;;;;;;18.29;100.00;99459.56;6323987;28;20504;-74
2022/09/10 02:44:27;;;;;;;2.23;2.00;;;;;;;18.33;100.00;99454.81;6307216;28;20110;-74
2022/09/10 02:47:28;;;;;;;;;;;;;;;18.30;100.00;99441.91;6325796;28;20048;-74
2022/09/10 02:50:31;;;;;;;3.10;2.45;;;;;;;18.31;100.00;99436.47;6323839;28;19920;-72
2022/09/10 02:53:34;;;;;;;;;;;;;;;18.25;100.00;99438.91;6325650;28;20066;-75
2022/09/10 02:56:35;;;;;;;2.78;2.08;;;;;;;18.31;100.00;99433.81;6323542;28;19978;-74
2022/09/10 02:59:36;;;;;;;3.23;1.97;;;;;;;18.31;100.00;99427.72;6324952;28;20036;-72
2022/09/10 03:02:37;;;;;;;5.07;2.23;;;;;;;18.31;100.00;99430.38;6324643;28;20036;-72
2022/09/10 03:05:38;;;;;;;3.70;2.42;;;;;;;18.31;100.00;99435.66;6322987;28;20043;-74
2022/09/10 03:08:41;;;;;;;3.30;2.90;;;;;;;18.36;100.00;99428.06;6323324;28;20039;-72
2022/09/10 03:11:45;;;;;;;3.53;2.60;;;;;;;18.35;100.00;99423.78;6322040;28;20032;-72
2022/09/10 03:14:49;;;;;;;3.03;2.13;;;;;;;18.31;100.00;99422.44;6323204;28;20051;-72
2022/09/10 03:17:50;;;;;;;3.03;2.45;;;;;;;18.32;100.00;99430.22;6323263;28;20479;-72
2022/09/10 03:20:51;;;;;;;3.70;2.47;;;;;;;18.32;100.00;99424.94;6323538;28;20043;-72
2022/09/10 03:23:52;;;;;;;4.45;2.90;;;;;;;18.31;100.00;99433.81;6322520;28;20040;-71
2022/09/10 03:26:56;;;;;;;4.75;3.08;;;;;;;18.30;100.00;99434.81;6323696;28;20048;-72
2022/09/10 03:29:56;;;;;;;3.30;2.72;;;;;;;18.28;100.00;99433.31;6323053;28;21206;-72
2022/09/10 03:32:57;;;;;;;4.67;2.53;;;;;;;18.32;100.00;99435.50;6323733;28;20047;-73
2022/09/10 03:35:58;;;;;;;2.50;2.17;;;;;;;18.35;100.00;99441.44;6323891;28;20085;-74
2022/09/10 03:38:59;;;;;;;3.47;2.65;;;;;;;18.35;100.00;99438.81;6324297;28;20168;-72
2022/09/10 03:42:04;;;;;;;3.45;2.58;;;;;;;18.44;100.00;99433.38;6322627;28;20527;-73
2022/09/10 03:45:05;;;;;;;3.45;2.50;;;;;;;18.38;100.00;99441.94;6324053;28;20056;-74
2022/09/10 03:48:06;;;;;;;2.72;2.40;;;;;;;18.39;100.00;99432.19;6321738;28;20040;-73
2022/09/10 03:51:06;;;;;;;2.90;2.43;;;;;;;18.35;100.00;99429.06;6323755;28;20055;-73
2022/09/10 03:54:09;;;;;;;2.87;2.47;;;;;;;18.33;100.00;99431.84;6323579;28;20044;-71
2022/09/10 03:57:11;;;;;;;4.68;2.72;;;;;;;18.29;100.00;99419.13;6312287;28;20075;-72
2022/09/10 04:00:12;;;;;;;4.13;2.53;;;;;;;18.31;100.00;99425.91;6295879;28;20043;-72
2022/09/10 04:03:15;;;;;;;2.45;2.20;;;;;;;18.25;100.00;99417.78;6295623;28;20121;-72
2022/09/10 04:06:16;;;;;;;3.88;2.55;;;;;;;18.24;100.00;99426.69;6300586;28;20048;-72
2022/09/10 04:09:17;;;;;;;3.67;2.33;;;;;;;18.23;100.00;99417.94;6303635;28;20059;-74
2022/09/10 04:12:20;;;;;;;5.10;2.40;;;;;;;18.22;100.00;99418.94;6303662;28;20044;-74
2022/09/10 04:15:22;;;;;;;4.55;2.90;;;;;;;18.19;100.00;99435.09;6321583;28;20068;-74
2022/09/10 04:18:25;;;;;;;8.13;2.72;;;;;;;18.09;100.00;99431.72;6299457;28;20473;-72
2022/09/10 04:21:26;;;;;;;3.47;2.67;;;;;;;18.12;100.00;99434.06;6295196;28;20044;-72
2022/09/10 04:24:26;;;;;;;3.17;2.60;;;;;;;18.16;100.00;99431.94;6296362;28;20048;-74
2022/09/10 04:27:27;;;;;;;2.40;2.20;;;;;;;18.25;100.00;99423.06;6294847;28;20398;-72
2022/09/10 04:30:28;;;;;;;4.15;2.80;;;;;;;18.29;100.00;99424.41;6296196;28;20098;-72
2022/09/10 04:33:29;;;;;;;3.38;2.55;;;;;;;18.09;100.00;99424.63;6296096;28;20484;-72
2022/09/10 04:36:30;;;;;;;3.30;2.80;;;;;;;18.13;100.00;99422.50;6295937;28;20044;-74
2022/09/10 04:39:31;;;;;;;5.17;3.13;;;;;;;18.26;100.00;99427.34;6294458;28;20532;-74
2022/09/10 04:42:32;;;;;;;5.95;3.92;;;;;;;18.38;100.00;99417.34;6295984;28;20512;-72
2022/09/10 04:45:33;;;;;;;5.97;3.53;;;;;;;18.33;100.00;99416.00;6296220;28;20055;-72
2022/09/10 04:48:34;;;;;;;5.93;4.00;;;;;;;18.42;100.00;99413.41;6294809;28;20040;-72
2022/09/10 04:51:37;;;;;;;10.52;4.10;;;;;;;18.50;100.00;99414.25;6294501;28;20047;-72
2022/09/10 04:54:38;;;;;;;5.75;4.07;;;;;;;18.47;100.00;99411.09;6294280;28;20047;-74
2022/09/10 04:57:42;;;;;;;6.07;3.75;;;;;;;18.59;100.00;99415.09;6295529;28;20489;-73
2022/09/10 05:00:43;;;;;;;4.68;3.65;;;;;;;18.71;100.00;99405.06;6295568;28;20409;-72
2022/09/10 05:03:44;;;;;;;6.37;3.53;;;;;;;18.81;100.00;99395.19;6295462;28;20261;-74
2022/09/10 05:06:46;;;;;;;5.83;4.03;;;;;;;18.82;100.00;99394.22;6294274;28;20157;-74
2022/09/10 05:09:47;;;;;;;5.07;3.67;;;;;;;18.87;100.00;99391.09;6295254;28;20048;-72
2022/09/10 05:12:48;;;;;;;4.80;3.83;;;;;;;18.93;100.00;99396.53;6295342;28;20098;-72
2022/09/10 05:15:49;;;;;;;5.60;3.65;;;;;;;19.11;100.00;99399.03;6332762;27;20108;-72
2022/09/10 05:18:50;;;;;;;6.00;4.13;;;;;;;19.21;100.00;99404.19;6296439;28;20500;-74
2022/09/10 05:21:50;;;;;;;5.37;4.27;;;;;;;19.28;100.00;99397.22;6293740;28;20109;-74
2022/09/10 05:24:54;;;;;;;6.33;4.30;;;;;;;19.29;100.00;99400.69;6295121;28;20127;-74
2022/09/10 05:27:54;;;;;;;5.68;3.45;;;;;;;19.28;100.00;99397.22;6294904;28;20082;-73
2022/09/10 05:30:57;;;;;;;6.27;4.10;;;;;;;19.30;100.00;99405.00;6295020;28;20040;-73
2022/09/10 05:34:00;;;;;;;7.45;4.00;;;;;;;19.33;100.00;99409.94;6294756;28;20475;-72
2022/09/10 05:37:00;;;;;;;10.02;4.47;;;;;;;19.25;100.00;99409.94;6294867;28;20041;-72
2022/09/10 05:40:07;;;;;;;5.97;4.13;;;;;;;19.20;100.00;99413.09;6296703;28;20233;-72
2022/09/10 05:43:10;;;;;;;8.27;4.40;;;;;;;19.20;100.00;99415.72;6319089;28;20059;-75
2022/09/10 05:46:11;;;;;;;8.70;4.40;;;;;;;19.22;100.00;99410.28;6319902;28;20040;-72
2022/09/10 05:49:13;;;;;;;5.67;3.90;;;;;;;19.12;100.00;99421.81;6309313;28;20037;-72
2022/09/10 05:52:14;;;;;;;7.25;4.05;;;;;;;19.12;100.00;99424.47;6317093;28;20392;-72
2022/09/10 05:55:20;;;;;;;5.97;3.75;;;;;;;19.16;100.00;99426.81;6319651;28;20051;-73
2022/09/10 05:58:20;;;;;;;5.22;3.70;;;;;;;19.18;100.00;99422.19;6320007;28;20040;-73
2022/09/10 06:01:21;;;;;;;5.07;4.00;;;;;;;19.08;100.00;99420.50;6318311;28;20475;-72
2022/09/10 06:04:23;;;;;;;5.47;3.77;;;;;;;18.90;100.00;99414.53;6318509;28;20040;-72
2022/09/10 06:07:23;;;;;;;4.32;3.40;;;;;;;19.00;100.00;99420.50;6319704;28;20037;-72
2022/09/10 06:10:24;;;;;;;6.90;3.30;;;;;;;19.11;100.00;99417.53;6301250;28;20056;-72
2022/09/10 06:13:25;;;;;;;4.85;3.67;;;;;;;19.14;100.00;99421.66;6318336;28;20036;-72
2022/09/10 06:16:26;;;;;;;6.15;4.13;;;;;;;19.17;100.00;99416.06;6352115;28;20043;-72
2022/09/10 06:19:27;;;;;;;7.00;3.90;;;;;;;19.18;100.00;99419.53;6318023;28;20060;-72
2022/09/10 06:22:29;;;;;;;5.27;3.67;;;;;;;19.23;100.00;99407.47;6319311;28;20036;-74
2022/09/10 06:25:30;;;;;;;;;;;;;;;19.32;100.00;99411.75;6320096;28;20040;-74
2022/09/10 06:28:31;;;;;;;3.83;2.97;;;;;;;19.30;100.00;99416.38;6318032;28;20146;-72
2022/09/10 06:31:33;;;;;;;;;;;;;;;19.29;100.00;99413.91;6318561;28;20047;-72
2022/09/10 06:34:34;;;;;;;4.38;3.33;;;;;;;19.20;100.00;99415.72;6318157;28;20330;-73
2022/09/10 06:37:35;;;;;;;7.10;4.17;;;;;;;19.21;100.00;99409.47;6301167;28;20048;-74
2022/09/10 06:40:38;;;;;;;6.00;3.67;;;;;;;19.21;100.00;99393.59;6317843;28;20093;-73
2022/09/10 06:43:40;;;;;;;6.55;3.67;;;;;;;19.25;100.00;99392.28;6317908;28;20047;-74
2022/09/10 06:46:41;;;;;;;4.63;3.60;;;;;;;19.30;100.00;99403.16;6319565;28;20508;-73
2022/09/10 06:49:42;;;;;;;;;;;;;;;19.29;100.00;99403.31;6301272;28;20048;-72
2022/09/10 06:52:43;;;;;;;4.45;3.17;;;;;;;19.23;100.00;99396.91;6318054;28;19927;-72
2022/09/10 06:55:44;;;;;;;4.80;3.63;;;;;;;19.31;100.00;99390.75;6319485;28;20040;-74
2022/09/10 06:58:44;;;;;;;6.20;3.60;;;;;;;19.43;100.00;99389.44;6318982;28;20182;-72
2022/09/10 07:01:46;;;;;;;7.10;3.77;;;;;;;19.52;100.00;99388.44;6317805;28;20680;-74
2022/09/10 07:04:47;;;;;;;4.75;3.42;;;;;;;19.47;100.00;99387.28;6322476;28;20048;-74
2022/09/10 07:07:48;;;;;;;4.25;3.28;;;;;;;19.48;100.00;99389.78;6323277;28;20105;-74
2022/09/10 07:10:49;;;;;;;6.27;3.50;;;;;;;19.60;100.00;99406.13;6290404;28;20051;-74
2022/09/10 07:13:51;;;;;;;6.00;3.80;;;;;;;19.71;100.00;99415.56;6312789;28;20060;-72
2022/09/10 07:16:53;;;;;;;5.47;3.58;;;;;;;19.87;100.00;99402.31;6296689;28;20059;-74
2022/09/10 07:19:54;;;;;;;4.70;3.35;;;;;;;19.99;100.00;99399.28;6297736;28;20096;-72
2022/09/10 07:22:55;;;;;;;6.17;3.47;;;;;;;20.08;100.00;99412.34;6297759;28;20045;-72
2022/09/10 07:26:02;;;;;;;5.05;3.42;;;;;;;20.05;100.00;99409.19;6297684;28;20048;-72
2022/09/10 07:29:04;;;;;;;4.93;3.55;;;;;;;20.04;100.00;99421.63;6296324;28;20045;-73
2022/09/10 07:32:05;;;;;;;4.38;3.03;;;;;;;20.01;100.00;99416.63;6297677;28;20123;-72
2022/09/10 07:35:09;;;;;;;3.60;2.60;;;;;;;20.20;100.00;99415.44;6297164;28;20044;-74
2022/09/10 07:38:13;;;;;;;4.57;2.97;;;;;;;20.37;100.00;99416.19;6329911;28;20048;-75
2022/09/10 07:41:14;;;;;;;5.03;3.38;;;;;;;20.28;100.00;99431.31;6295646;28;20048;-75
2022/09/10 07:44:15;;;;;;;3.78;3.10;;;;;;;20.21;100.00;99427.69;6296016;28;20055;-74
2022/09/10 07:47:18;;;;;;;4.45;3.28;;;;;;;20.10;100.00;99420.94;6279840;28;20102;-72
2022/09/10 07:50:21;;;;;;;4.72;2.97;;;;;;;20.11;100.00;99430.50;6295837;28;20041;-75
2022/09/10 07:53:24;;;;;;;4.97;2.65;;;;;;;20.00;100.00;99433.53;6279029;28;20079;-72
2022/09/10 07:56:26;;;;;;;4.72;2.75;;;;;;;20.02;100.00;99436.03;6296957;28;20094;-72
2022/09/10 07:59:27;;;;;;;3.40;3.00;;;;;;;19.90;100.00;99427.59;6329343;28;20118;-72
2022/09/10 08:02:30;;;;;;;4.40;3.23;;;;;;;19.73;100.00;99438.22;6312408;28;20053;-74
2022/09/10 08:05:31;;;;;;;3.05;2.75;;;;;;;19.36;100.00;99441.38;6296658;28;20610;-71
2022/09/10 08:08:34;;;;;;;3.73;2.90;;;;;;;19.42;100.00;99435.41;6295384;28;20037;-71
2022/09/10 08:11:34;;;;;;;4.25;3.22;;;;;;;19.11;100.00;99436.06;6296465;28;20045;-74
2022/09/10 08:14:36;;;;;;;3.43;2.70;;;;;;;19.05;100.00;99449.09;6295710;28;20450;-71
2022/09/10 08:17:37;;;;;;;6.38;3.33;;;;;;;19.12;100.00;99440.34;6295220;28;20040;-71
2022/09/10 08:20:39;;;;;;;3.67;2.97;;;;;;;19.16;100.00;99446.13;6294996;28;20041;-71
2022/09/10 08:23:42;;;;;;;2.88;2.28;;;;;;;18.92;100.00;99445.13;6278258;28;20151;-72
2022/09/10 08:26:43;;;;;;;2.72;2.20;;;;;;;18.73;100.00;99462.03;6296205;28;20067;-73
2022/09/10 08:29:44;;;;;;;2.70;1.83;;;;;;;18.86;100.00;99455.50;6311690;28;20493;-71
2022/09/10 08:32:47;;;;;;;2.00;1.80;;;;;;;18.74;100.00;99468.16;6294885;28;20055;-74
2022/09/10 08:35:56;;;;;;;2.88;1.90;;;;;;;18.46;100.00;99476.31;6294639;28;20040;-73
2022/09/10 08:38:56;;;;;;;1.90;1.63;;;;;;;18.56;100.00;99483.28;6294545;28;20068;-74
2022/09/10 08:42:16;;;;;;;2.17;1.70;;;;;;;18.95;100.00;99480.16;6295619;28;20057;-71
2022/09/10 08:45:26;;;;;;;1.63;1.50;;;;;;;19.33;100.00;99476.06;6328253;28;20082;-71
2022/09/10 08:48:30;;;;;;;1.67;1.40;;;;;;;19.04;100.00;99479.16;6328131;28;20462;-74
2022/09/10 08:51:43;;;;;;;1.45;1.27;;;;;;;19.07;100.00;99476.22;6295637;28;20044;-74
2022/09/10 08:55:05;;;;;;;2.22;1.50;;;;;;;19.61;100.00;99471.28;6310973;28;20041;-73
2022/09/10 08:58:17;;;;;;;1.95;1.38;;;;;;;20.28;100.00;99473.69;6295472;28;20070;-74
2022/09/10 09:01:34;;;;;;;;;;;;;;;20.08;100.00;99469.78;6311475;28;20148;-72
2022/09/10 09:04:38;;;;;;;1.52;1.38;;;;;;;20.27;100.00;99463.25;6295333;28;20388;-74
2022/09/10 09:07:39;;;;;;;1.90;1.10;;;;;;;20.35;100.00;99465.06;6295251;28;20048;-72
2022/09/10 09:11:18;;;;;;;1.20;1.08;;;;;;;20.39;100.00;99471.66;6293755;28;20059;-71
2022/09/10 09:14:23;;;;;;;0.93;0.85;;;;;;;19.93;100.00;99475.75;6273091;28;20084;-74
2022/09/10 09:17:50;;;;;;;1.98;1.48;;;;;;;19.77;100.00;99469.63;6295130;28;20411;-72
2022/09/10 09:20:56;;;;;;;1.40;1.30;;;;;;;19.91;100.00;99472.44;6310494;28;20523;-74
2022/09/10 09:23:57;;;;;;;1.48;1.30;;;;;;;19.86;100.00;99473.94;6295005;28;20103;-71
2022/09/10 09:27:08;;;;;;;2.38;1.63;;;;;;;19.87;100.00;99476.44;6292710;28;20420;-74
2022/09/10 09:30:12;;;;;;;2.10;1.90;;;;;;;19.89;100.00;99474.44;6293516;28;20045;-75
2022/09/10 09:33:17;;;;;;;2.13;1.60;;;;;;;20.08;100.00;99469.78;6294798;28;20459;-74
2022/09/10 09:36:26;;;;;;;2.55;1.92;;;;;;;20.10;100.00;99475.72;6293332;28;20045;-75
2022/09/10 09:39:35;;;;;;;1.75;1.50;;;;;;;20.36;100.00;99472.00;6327460;28;20047;-72
2022/09/10 09:42:44;;;;;;;1.85;1.70;;;;;;;20.72;100.00;99486.47;6294425;28;20052;-72
2022/09/10 09:45:46;;;;;;;2.40;2.00;;;;;;;20.70;100.00;99474.38;6293437;28;20263;-74
2022/09/10 09:48:52;;;;;;;1.83;1.55;;;;;;;20.55;100.00;99479.56;6293274;28;20064;-72
2022/09/10 09:51:53;;;;;;;1.70;1.60;;;;;;;20.24;100.00;99482.97;6294739;28;20047;-72
2022/09/10 09:55:02;;;;;;;3.80;1.60;;;;;;;21.33;100.00;99481.28;6293245;28;20037;-72
2022/09/10 09:58:33;;;;;;;1.67;1.48;;;;;;;22.28;100.00;99485.28;6293262;28;20504;-72
2022/09/10 10:01:41;;;;;;;2.05;1.60;;;;;;;22.54;100.00;99476.00;6293423;28;20061;-73
2022/09/10 10:05:21;;;;;;;1.50;1.40;;;;;;;21.84;100.00;99483.38;6293233;28;20044;-74
2022/09/10 10:08:29;;;;;;;2.97;1.38;;;;;;;21.22;100.00;99472.91;6326929;28;20040;-73
2022/09/10 10:11:40;;;;;;;3.67;1.55;;;;;;;20.79;100.00;99477.81;6294264;28;20033;-74
2022/09/10 10:14:42;;;;;;;1.63;1.50;;;;;;;20.88;100.00;99474.13;6309730;28;20045;-74
2022/09/10 10:17:43;;;;;;;2.08;1.65;;;;;;;21.27;100.00;99482.00;6276416;28;20048;-74
2022/09/10 10:20:44;;;;;;;;;;;;;;;21.25;100.00;99499.06;6293543;28;20085;-74
2022/09/10 10:23:46;;;;;;;1.45;1.30;;;;;;;20.92;100.00;99496.66;6326757;28;19924;-74
2022/09/10 10:26:47;;;;;;;3.70;1.40;;;;;;;20.96;100.00;99497.09;6292917;28;20052;-71
2022/09/10 10:30:06;;;;;;;1.15;1.05;;;;;;;20.89;100.00;99503.09;6276096;28;20060;-74
2022/09/10 10:33:17;;;;;;;1.63;1.25;;;;;;;20.82;100.00;99510.13;6294063;28;20392;-71
2022/09/10 10:36:36;;;;;;;2.33;1.60;;;;;;;20.85;100.00;99516.88;6292896;28;20462;-72
2022/09/10 10:39:55;;;;;;;1.42;1.33;;;;;;;20.60;100.00;99509.03;6297515;28;20036;-74
2022/09/10 10:43:17;;;;;;;1.65;1.50;;;;;;;20.29;100.00;99493.06;6280664;28;20516;-74
2022/09/10 10:46:26;;;;;;;1.70;1.58;;;;;;;20.52;100.00;99493.94;6297440;28;20044;-74
2022/09/10 10:49:58;;;;;;;2.15;1.58;;;;;;;20.47;100.00;99498.97;6298517;28;20098;-75
2022/09/10 10:53:21;;;;;;;1.73;1.40;;;;;;;20.20;100.00;99478.16;6314147;28;20049;-74
2022/09/10 10:56:39;;;;;;;1.33;1.23;;;;;;;19.95;100.00;99464.16;6297148;28;20048;-74
2022/09/10 10:59:53;;;;;;;2.22;1.50;;;;;;;19.87;100.00;99454.41;6313922;28;20140;-74
2022/09/10 11:03:23;;;;;;;1.70;1.40;;;;;;;19.96;100.00;99460.53;6296899;28;20058;-74
2022/09/10 11:06:30;;;;;;;1.98;1.75;;;;;;;20.38;100.00;99467.34;6296930;28;20076;-74
2022/09/10 11:09:40;;;;;;;2.05;1.73;;;;;;;20.96;100.00;99470.59;6330730;28;20061;-74
2022/09/10 11:13:07;;;;;;;2.28;1.75;;;;;;;21.47;100.00;99458.47;6296805;28;20040;-74
2022/09/10 11:16:45;;;;;;;2.05;1.77;;;;;;;21.60;100.00;99468.50;6296521;28;20055;-72
2022/09/10 11:19:48;;;;;;;1.80;1.38;;;;;;;21.91;100.00;99479.00;6257568;28;20083;-71
2022/09/10 11:23:20;;;;;;;2.22;1.80;;;;;;;21.99;100.00;99479.91;6313246;28;20098;-71
2022/09/10 11:26:26;;;;;;;1.52;1.40;;;;;;;22.78;100.00;99471.41;6313289;28;20048;-71
2022/09/10 11:29:44;;;;;;;1.75;1.20;;;;;;;22.64;100.00;99468.56;6296480;28;20511;-72
2022/09/10 11:32:47;;;;;;;1.75;1.40;;;;;;;22.27;100.00;99465.03;6296183;28;20382;-71
2022/09/10 11:36:02;;;;;;;1.27;1.17;;;;;;;23.25;100.00;99456.78;6296095;28;20037;-71
2022/09/10 11:39:23;;;;;;;1.42;1.30;;;;;;;22.71;100.00;99458.84;6329796;28;20404;-71
2022/09/10 11:42:44;;;;;;;1.30;1.20;;;;;;;22.84;100.00;99462.66;6312622;28;20059;-72
2022/09/10 11:45:51;;;;;;;1.50;1.40;;;;;;;23.17;93.29;99454.25;6296076;28;20053;-72
2022/09/10 11:49:06;;;;;;;1.58;1.40;;;;;;;22.55;98.19;99467.03;6295417;28;20059;-74
2022/09/10 11:52:07;;;;;;;1.38;1.17;;;;;;;22.89;91.67;99458.41;6295450;28;20386;-74
2022/09/10 11:55:14;;;;;;;1.23;1.13;;;;;;;23.98;92.95;99464.56;6295750;28;20602;-74
2022/09/10 11:58:30;;;;;;;1.20;1.10;;;;;;;24.16;83.43;99464.88;6296963;28;20051;-74
2022/09/10 12:02:08;;;;;;;1.15;1.00;;;;;;;24.24;81.94;99458.56;6296810;28;20059;-72
2022/09/10 12:05:24;;;;;;;1.70;1.20;;;;;;;23.64;83.38;99452.78;6295402;28;20044;-71
2022/09/10 12:08:33;;;;;;;1.30;1.15;;;;;;;22.80;91.91;99448.91;6295336;28;20098;-74
2022/09/10 12:11:55;;;;;;;2.05;1.25;;;;;;;22.76;95.85;99454.81;6295534;28;20405;-74
2022/09/10 12:14:57;;;;;;;1.38;1.27;;;;;;;22.25;94.45;99453.75;6278429;28;20052;-74
2022/09/10 12:18:04;;;;;;;;;;;;;;;22.36;94.90;99452.47;6296943;28;20045;-74
2022/09/10 12:21:14;;;;;;;2.08;1.20;;;;;;;22.42;99.01;99451.72;6296377;28;19924;-74
2022/09/10 12:24:33;;;;;;;3.10;1.17;;;;;;;22.11;100.00;99447.44;6295108;28;20041;-74
2022/09/10 12:27:46;;;;;;;1.20;1.10;;;;;;;21.81;100.00;99441.25;6278257;28;20045;-71
2022/09/10 12:30:51;;;;;;;1.13;1.02;;;;;;;21.76;100.00;99440.16;6296248;28;20133;-71
2022/09/10 12:33:53;;;;;;;1.75;1.17;;;;;;;22.16;96.79;99438.91;6295985;28;20086;-72
2022/09/10 12:36:53;;;;;;;1.27;1.17;;;;;;;22.32;96.28;99444.06;6328403;28;20504;-71
2022/09/10 12:40:25;;;;;;;1.40;1.30;;;;;;;22.09;95.86;99454.75;6328464;28;20052;-71
2022/09/10 12:43:42;;;;;;;1.75;1.33;;;;;;;21.84;99.74;99445.38;6295957;28;20417;-72
2022/09/10 12:46:43;;;;;;;1.98;1.33;;;;;;;21.84;100.00;99440.06;6294586;28;20055;-71
2022/09/10 12:49:50;;;;;;;2.10;1.33;;;;;;;21.65;100.00;99442.22;6294424;28;20084;-73
2022/09/10 12:52:50;;;;;;;4.25;1.70;;;;;;;21.44;100.00;99436.78;6311016;28;20796;-75
2022/09/10 12:56:01;;;;;;;1.40;1.30;;;;;;;20.69;100.00;99438.25;6294076;28;20127;-75
2022/09/10 12:59:16;;;;;;;1.67;1.30;;;;;;;20.26;100.00;99445.69;6295437;28;20032;-75
2022/09/10 13:02:32;;;;;;;1.85;1.58;;;;;;;20.48;100.00;99425.56;6277159;28;20139;-75
2022/09/10 13:05:42;;;;;;;1.65;1.30;;;;;;;20.72;100.00;99449.34;6294132;28;20503;-75
2022/09/10 13:08:47;;;;;;;2.53;1.75;;;;;;;20.96;100.00;99439.63;6295162;28;20032;-75
2022/09/10 13:11:53;;;;;;;1.92;1.60;;;;;;;21.43;100.00;99430.63;6295185;28;20041;-73
2022/09/10 13:14:56;;;;;;;3.35;1.55;;;;;;;21.68;100.00;99433.06;6293632;28;20527;-74
2022/09/10 13:17:58;;;;;;;1.38;1.27;;;;;;;22.05;100.00;99429.56;6294129;28;20037;-75
2022/09/10 13:21:21;;;;;;;2.00;1.77;;;;;;;22.48;100.00;99421.75;6293691;28;20123;-72
2022/09/10 13:24:37;;;;;;;3.03;2.25;;;;;;;22.59;100.00;99416.94;6293447;28;20060;-73
2022/09/10 13:27:39;;;;;;;2.03;1.52;;;;;;;22.42;100.00;99408.38;6294882;28;20747;-73
2022/09/10 13:30:40;;;;;;;1.88;1.52;;;;;;;22.08;100.00;99417.75;6293622;28;20507;-73
2022/09/10 13:33:50;;;;;;;2.20;1.52;;;;;;;21.94;100.00;99419.38;6293359;28;20055;-73
2022/09/10 13:37:17;;;;;;;3.25;1.63;;;;;;;21.86;100.00;99419.47;6293692;28;20059;-75
2022/09/10 13:40:37;;;;;;;1.42;1.33;;;;;;;22.08;100.00;99423.06;6293483;28;20044;-75
2022/09/10 13:43:47;;;;;;;1.73;1.25;;;;;;;21.91;100.00;99417.91;6294588;28;20048;-75
2022/09/10 13:46:56;;;;;;;1.63;1.52;;;;;;;21.82;100.00;99415.53;6293470;28;20576;-75
2022/09/10 13:50:02;;;;;;;1.38;1.27;;;;;;;21.93;100.00;99415.09;6293467;28;20044;-73
2022/09/10 13:53:09;;;;;;;2.30;1.73;;;;;;;21.77;100.00;99408.13;6293240;28;20422;-73
2022/09/10 13:56:27;;;;;;;2.28;1.45;;;;;;;21.66;100.00;99416.50;6293331;28;20059;-72
2022/09/10 13:59:30;;;;;;;2.65;1.40;;;;;;;21.83;100.00;99425.16;6293180;28;20124;-72
2022/09/10 14:02:40;;;;;;;1.38;1.27;;;;;;;21.61;100.00;99425.03;6276785;28;20052;-74
2022/09/10 14:06:13;;;;;;;1.38;1.27;;;;;;;21.71;100.00;99433.56;6293172;28;20037;-74
2022/09/10 14:09:14;;;;;;;0.90;0.88;;;;;;;21.73;100.00;99428.88;6284345;28;20049;-74
2022/09/10 14:12:22;;;;;;;1.33;1.17;;;;;;;21.64;100.00;99434.44;6293038;28;20051;-74
2022/09/10 14:15:32;;;;;;;1.40;1.30;;;;;;;21.65;100.00;99430.81;6299190;28;20060;-74
2022/09/10 14:18:44;;;;;;;1.50;1.40;;;;;;;21.39;100.00;99417.88;6332083;28;20059;-74
2022/09/10 14:21:50;;;;;;;1.65;1.40;;;;;;;21.63;100.00;99420.34;6281212;28;20072;-72
2022/09/10 14:24:55;;;;;;;2.00;1.40;;;;;;;21.30;100.00;99419.78;6297950;28;20316;-74
2022/09/10 14:28:14;;;;;;;3.47;1.10;;;;;;;21.72;100.00;99429.91;6297862;28;20094;-74
2022/09/10 14:31:26;;;;;;;2.08;1.40;;;;;;;21.68;100.00;99428.63;6297969;28;20495;-74